Time;durP1;ratioP1;P1;durP2;ratioP2;P2;SDS_P1;SDS_P2;PMS_P1;PMS_P2;Temp;Humidity;BMP_temperature;BMP_pressure;BME280_temperature;BME280_humidity;BME280_pressure;Samples;Min_cycle;Max_cycle;Signal;HPM_P1;HPM_P2
2022/09/17 00:01:07;;;;;;;17.85;3.40;;;13.50;81.70;;;;;;5064964;28;20131;-69
2022/09/17 00:03:33;;;;;;;21.45;3.30;;;13.50;86.50;;;;;;5065371;28;20028;-69
2022/09/17 00:06:11;;;;;;;21.75;3.50;;;13.50;91.90;;;;;;5066094;28;20177;-70
2022/09/17 00:08:39;;;;;;;14.60;3.22;;;13.50;97.10;;;;;;5062678;28;20048;-69
2022/09/17 00:11:09;;;;;;;20.92;3.85;;;13.40;91.80;;;;;;5065566;28;20044;-70
2022/09/17 00:13:35;;;;;;;20.45;4.13;;;13.40;87.60;;;;;;5064678;28;20069;-70
2022/09/17 00:16:01;;;;;;;20.30;3.85;;;13.40;86.80;;;;;;5066204;28;20053;-70
2022/09/17 00:18:26;;;;;;;17.60;3.45;;;13.40;92.00;;;;;;5047378;28;20044;-69
2022/09/17 00:20:52;;;;;;;23.42;3.53;;;13.20;88.00;;;;;;5064831;28;20113;-69
2022/09/17 00:23:18;;;;;;;26.17;4.30;;;13.10;91.50;;;;;;5079472;28;20041;-69
2022/09/17 00:25:45;;;;;;;23.02;3.72;;;13.00;91.80;;;;;;5083652;28;20074;-69
2022/09/17 00:28:13;;;;;;;28.45;4.28;;;12.90;93.10;;;;;;5069564;28;20325;-69
2022/09/17 00:30:40;;;;;;;21.75;3.65;;;12.90;93.20;;;;;;5067916;28;20051;-69
2022/09/17 00:33:06;;;;;;;18.70;4.07;;;12.90;93.00;;;;;;5069253;28;20093;-69
2022/09/17 00:35:32;;;;;;;18.17;3.90;;;13.00;94.40;;;;;;5067818;28;20126;-69
2022/09/17 00:37:58;;;;;;;19.40;3.22;;;13.10;94.10;;;;;;5085700;28;20179;-69
2022/09/17 00:40:24;;;;;;;22.85;3.65;;;13.10;92.90;;;;;;5068427;28;20500;-69
2022/09/17 00:42:52;;;;;;;14.63;2.78;;;13.00;93.20;;;;;;5067996;28;20044;-69
2022/09/17 00:45:18;;;;;;;17.65;3.53;;;13.00;86.40;;;;;;5069342;28;20076;-69
2022/09/17 00:48:01;;;;;;;20.73;3.50;;;13.00;91.40;;;;;;5051045;28;20270;-70
2022/09/17 00:50:38;;;;;;;22.80;3.38;;;13.00;95.00;;;;;;5050258;28;20043;-69
2022/09/17 00:53:14;;;;;;;19.90;3.75;;;13.00;99.90;;;;;;5068747;28;20135;-70
2022/09/17 00:55:46;;;;;;;20.98;4.00;;;13.00;96.80;;;;;;5067439;28;20887;-69
2022/09/17 00:58:15;;;;;;;17.80;3.17;;;12.90;99.60;;;;;;5069118;28;20052;-70
2022/09/17 01:00:42;;;;;;;20.77;4.38;;;12.70;99.90;;;;;;5050089;28;20165;-69
2022/09/17 01:03:08;;;;;;;23.63;4.18;;;12.70;99.90;;;;;;5060558;28;20131;-70
2022/09/17 01:05:48;;;;;;;24.13;4.25;;;12.70;99.90;;;;;;5051211;28;20127;-69
2022/09/17 01:08:22;;;;;;;20.48;3.72;;;12.70;99.90;;;;;;5068641;28;20040;-69
2022/09/17 01:11:06;;;;;;;17.55;3.28;;;12.70;99.90;;;;;;5068034;28;20052;-69
2022/09/17 01:13:57;;;;;;;15.25;3.50;;;12.80;99.90;;;;;;5065378;28;20101;-69
2022/09/17 01:16:23;;;;;;;20.70;3.17;;;12.80;99.90;;;;;;5068847;28;20127;-69
2022/09/17 01:18:51;;;;;;;13.20;2.88;;;12.80;99.90;;;;;;5085845;28;20127;-68
2022/09/17 01:21:28;;;;;;;17.00;2.85;;;12.80;99.70;;;;;;5066847;28;20040;-69
2022/09/17 01:24:13;;;;;;;19.77;3.05;;;12.80;99.40;;;;;;5064338;28;20369;-69
2022/09/17 01:27:26;;;;;;;20.05;3.58;;;12.90;95.30;;;;;;5053735;28;20418;-69
2022/09/17 01:30:31;;;;;;;13.80;3.35;;;12.90;96.80;;;;;;5067700;28;20048;-69
2022/09/17 01:33:24;;;;;;;15.07;3.08;;;12.90;93.20;;;;;;5067143;28;20052;-69
2022/09/17 01:36:13;;;;;;;22.35;3.83;;;13.00;92.30;;;;;;5067471;28;20486;-69
2022/09/17 01:38:58;;;;;;;26.58;3.85;;;13.00;93.30;;;;;;5055008;28;20063;-69
2022/09/17 01:42:05;;;;;;;17.08;2.97;;;13.10;96.70;;;;;;5068490;28;20548;-69
2022/09/17 01:44:36;;;;;;;24.77;3.80;;;13.10;98.50;;;;;;4973766;28;20128;-69
2022/09/17 01:47:09;;;;;;;19.40;3.20;;;13.10;93.10;;;;;;5057335;28;20091;-69
2022/09/17 01:49:36;;;;;;;18.02;3.22;;;13.10;93.00;;;;;;5068040;28;20059;-69
2022/09/17 01:52:04;;;;;;;20.27;3.80;;;13.00;91.80;;;;;;5085392;28;20417;-69
2022/09/17 01:54:34;;;;;;;17.10;3.38;;;13.00;91.90;;;;;;5060128;28;20518;-69
2022/09/17 01:57:07;;;;;;;20.33;3.40;;;13.00;92.30;;;;;;5082213;28;20040;-69
2022/09/17 01:59:42;;;;;;;19.80;3.35;;;13.10;92.40;;;;;;5067930;28;20048;-69
2022/09/17 02:02:23;;;;;;;17.95;3.10;;;13.10;90.90;;;;;;5067676;28;20052;-69
2022/09/17 02:04:59;;;;;;;20.88;4.05;;;13.10;91.70;;;;;;5059000;28;20040;-69
2022/09/17 02:07:27;;;;;;;16.50;2.63;;;13.10;92.80;;;;;;5055237;28;20056;-69
2022/09/17 02:10:04;;;;;;;16.17;3.30;;;13.10;92.80;;;;;;5066213;28;20101;-69
2022/09/17 02:12:55;;;;;;;25.88;4.13;;;13.10;91.50;;;;;;5068135;28;20051;-69
2022/09/17 02:15:30;;;;;;;21.67;4.35;;;13.10;95.80;;;;;;5059450;28;20051;-69
2022/09/17 02:18:22;;;;;;;22.15;4.38;;;13.10;86.80;;;;;;5084202;28;20437;-69
2022/09/17 02:20:55;;;;;;;27.27;4.78;;;13.10;90.00;;;;;;5067704;28;20105;-69
2022/09/17 02:23:31;;;;;;;29.27;4.25;;;13.20;86.40;;;;;;5050325;28;20048;-69
2022/09/17 02:26:09;;;;;;;27.98;4.07;;;13.20;90.70;;;;;;5064978;28;20071;-70
2022/09/17 02:28:55;;;;;;;28.20;4.60;;;13.20;84.70;;;;;;5067648;28;20248;-69
2022/09/17 02:31:21;;;;;;;22.35;4.40;;;13.20;85.60;;;;;;5085279;28;20127;-69
2022/09/17 02:33:56;;;;;;;20.83;3.80;;;13.20;81.70;;;;;;5069564;28;20556;-69
2022/09/17 02:36:23;;;;;;;24.63;3.75;;;13.20;88.70;;;;;;5068866;28;20042;-69
2022/09/17 02:38:57;;;;;;;13.75;2.78;;;13.20;83.10;;;;;;5071133;28;20048;-68
2022/09/17 02:41:29;;;;;;;23.63;3.50;;;13.10;78.10;;;;;;5070987;28;20094;-68
2022/09/17 02:44:07;;;;;;;20.52;3.78;;;13.10;73.10;;;;;;5070185;28;20453;-69
2022/09/17 02:46:54;;;;;;;20.80;3.70;;;13.20;80.50;;;;;;5069790;28;20087;-69
2022/09/17 02:49:53;;;;;;;22.92;3.50;;;13.20;78.00;;;;;;5088351;28;20079;-69
2022/09/17 02:52:22;;;;;;;17.70;3.63;;;13.20;77.80;;;;;;5070194;28;20056;-69
2022/09/17 02:55:09;;;;;;;20.63;3.13;;;13.10;79.00;;;;;;5071016;28;20040;-68
2022/09/17 02:58:06;;;;;;;20.38;3.83;;;13.10;79.20;;;;;;5068640;28;20060;-68
2022/09/17 03:00:33;;;;;;;22.60;3.47;;;13.10;85.00;;;;;;5070475;28;20048;-68
2022/09/17 03:03:09;;;;;;;16.00;3.20;;;13.00;77.70;;;;;;5070271;28;20048;-69
2022/09/17 03:05:37;;;;;;;19.25;3.55;;;13.10;85.70;;;;;;5069731;28;20044;-68
2022/09/17 03:08:08;;;;;;;19.38;3.35;;;13.20;81.60;;;;;;5069322;28;20524;-68
2022/09/17 03:10:34;;;;;;;19.88;3.50;;;13.20;86.30;;;;;;5069324;28;20086;-68
2022/09/17 03:12:59;;;;;;;17.52;3.72;;;13.20;79.00;;;;;;5089018;28;20509;-68
2022/09/17 03:15:25;;;;;;;19.70;3.47;;;13.20;80.00;;;;;;5070318;28;20043;-68
2022/09/17 03:17:51;;;;;;;20.35;4.47;;;13.20;82.80;;;;;;5052625;28;20504;-69
2022/09/17 03:20:17;;;;;;;26.30;4.40;;;13.00;78.20;;;;;;5089538;28;20131;-68
2022/09/17 03:22:43;;;;;;;26.02;4.57;;;12.90;85.60;;;;;;5065063;28;20135;-69
2022/09/17 03:25:10;;;;;;;24.25;4.28;;;12.80;84.70;;;;;;5071115;28;20474;-68
2022/09/17 03:27:36;;;;;;;26.92;4.20;;;12.70;90.30;;;;;;5068779;28;20056;-69
2022/09/17 03:30:02;;;;;;;13.13;3.10;;;12.60;87.50;;;;;;5041384;28;20406;-68
2022/09/17 03:32:28;;;;;;;19.75;2.97;;;12.60;86.80;;;;;;5069269;28;20094;-68
2022/09/17 03:34:53;;;;;;;17.02;3.88;;;12.60;87.60;;;;;;5088066;28;20071;-68
2022/09/17 03:37:20;;;;;;;21.90;3.90;;;12.50;83.90;;;;;;5070092;28;20052;-68
2022/09/17 03:39:46;;;;;;;15.75;3.88;;;12.50;90.50;;;;;;5058254;28;20032;-68
2022/09/17 03:42:11;;;;;;;17.98;3.22;;;12.60;84.30;;;;;;5070362;28;20120;-68
2022/09/17 03:44:37;;;;;;;24.75;3.72;;;12.60;90.00;;;;;;5052575;28;20076;-68
2022/09/17 03:47:03;;;;;;;21.02;3.35;;;12.70;90.40;;;;;;5069868;28;20044;-68
2022/09/17 03:49:29;;;;;;;29.52;4.45;;;12.70;91.80;;;;;;5060575;28;20085;-68
2022/09/17 03:51:54;;;;;;;24.52;4.28;;;12.80;90.80;;;;;;5086733;28;20040;-68
2022/09/17 03:54:20;;;;;;;24.33;3.38;;;12.80;90.30;;;;;;5069295;28;20127;-68
2022/09/17 03:56:45;;;;;;;25.20;3.45;;;12.80;79.20;;;;;;5069280;28;20119;-68
2022/09/17 03:59:11;;;;;;;19.45;3.85;;;12.90;82.10;;;;;;5067379;28;20086;-68
2022/09/17 04:01:37;;;;;;;21.58;3.13;;;12.80;78.50;;;;;;5082256;28;20055;-68
2022/09/17 04:04:03;;;;;;;15.23;2.95;;;12.90;78.70;;;;;;5069833;28;20043;-67
2022/09/17 04:06:29;;;;;;;17.70;3.42;;;12.90;84.40;;;;;;5068400;28;20092;-68
2022/09/17 04:08:55;;;;;;;18.63;3.33;;;12.90;89.50;;;;;;5069668;28;20052;-68
2022/09/17 04:11:22;;;;;;;22.52;3.85;;;12.90;91.80;;;;;;5067984;28;20054;-68
2022/09/17 04:13:48;;;;;;;18.85;3.45;;;12.80;89.10;;;;;;5052442;28;20413;-68
2022/09/17 04:16:14;;;;;;;18.60;3.35;;;12.80;81.30;;;;;;5069293;28;20048;-68
2022/09/17 04:18:39;;;;;;;24.73;4.93;;;12.90;90.80;;;;;;5068804;28;20069;-68
2022/09/17 04:21:05;;;;;;;15.60;3.65;;;12.80;87.70;;;;;;5059995;28;20044;-68
2022/09/17 04:23:31;;;;;;;17.42;3.60;;;12.80;90.10;;;;;;5068289;28;20151;-68
2022/09/17 04:25:57;;;;;;;21.60;3.90;;;12.80;90.00;;;;;;5068940;28;20047;-68
2022/09/17 04:28:22;;;;;;;18.00;3.17;;;12.80;92.20;;;;;;5067923;28;20157;-69
2022/09/17 04:30:49;;;;;;;15.32;3.22;;;12.80;92.00;;;;;;5085739;28;20040;-68
2022/09/17 04:33:14;;;;;;;20.17;2.65;;;12.70;91.10;;;;;;5086659;28;20047;-68
2022/09/17 04:35:40;;;;;;;20.23;3.45;;;12.60;90.50;;;;;;5087308;28;20040;-67
2022/09/17 04:38:06;;;;;;;12.70;3.70;;;12.70;92.10;;;;;;5051968;28;20075;-68
2022/09/17 04:40:32;;;;;;;23.30;5.18;;;12.80;94.90;;;;;;5068426;28;20083;-68
2022/09/17 04:42:58;;;;;;;15.50;3.33;;;12.60;94.40;;;;;;5085248;28;20039;-68
2022/09/17 04:45:25;;;;;;;10.82;2.35;;;12.50;91.40;;;;;;5067791;28;20052;-69
2022/09/17 04:47:50;;;;;;;15.50;3.03;;;12.30;92.80;;;;;;5069093;28;20040;-68
2022/09/17 04:50:20;;;;;;;15.20;2.67;;;12.10;92.10;;;;;;5067983;28;20062;-68
2022/09/17 04:52:46;;;;;;;18.50;3.42;;;11.90;93.70;;;;;;5067267;28;20498;-68
2022/09/17 04:55:13;;;;;;;18.05;3.15;;;11.80;96.00;;;;;;5086635;28;20087;-68
2022/09/17 04:57:46;;;;;;;20.48;3.10;;;11.70;97.10;;;;;;5067532;28;20497;-68
2022/09/17 05:00:12;;;;;;;18.65;3.20;;;11.70;95.60;;;;;;5087177;28;20047;-68
2022/09/17 05:02:38;;;;;;;17.83;3.10;;;11.70;97.80;;;;;;5067159;28;20101;-67
2022/09/17 05:05:03;;;;;;;23.13;3.15;;;11.80;94.50;;;;;;5068366;28;20055;-68
2022/09/17 05:07:29;;;;;;;22.33;4.28;;;12.00;94.50;;;;;;5067548;28;20047;-68
2022/09/17 05:09:55;;;;;;;23.42;4.05;;;12.10;95.70;;;;;;5068124;28;20156;-68
2022/09/17 05:12:20;;;;;;;21.65;4.40;;;12.20;95.00;;;;;;5066693;28;20047;-68
2022/09/17 05:14:46;;;;;;;33.05;3.92;;;12.20;93.80;;;;;;5068488;28;20079;-68
2022/09/17 05:17:12;;;;;;;20.45;4.03;;;12.30;91.70;;;;;;5086402;28;20073;-68
2022/09/17 05:19:37;;;;;;;18.80;2.92;;;12.30;91.90;;;;;;5085423;28;20086;-68
2022/09/17 05:22:03;;;;;;;21.60;3.92;;;12.20;92.60;;;;;;5068481;28;20063;-67
2022/09/17 05:24:29;;;;;;;19.88;3.50;;;12.30;93.10;;;;;;5052336;28;20032;-68
2022/09/17 05:26:55;;;;;;;23.92;3.88;;;12.40;91.00;;;;;;5041905;28;20088;-67
2022/09/17 05:29:21;;;;;;;20.40;4.30;;;12.50;88.00;;;;;;5062549;28;20087;-68
2022/09/17 05:31:46;;;;;;;23.35;3.95;;;12.50;79.80;;;;;;5068499;28;20093;-68
2022/09/17 05:34:12;;;;;;;16.98;3.50;;;12.60;77.40;;;;;;5066521;28;20059;-68
2022/09/17 05:36:38;;;;;;;20.00;4.10;;;12.60;73.50;;;;;;5085724;28;20077;-67
2022/09/17 05:39:04;;;;;;;14.13;3.60;;;12.50;74.00;;;;;;5086379;28;20521;-68
2022/09/17 05:41:29;;;;;;;14.90;3.38;;;12.40;66.20;;;;;;5067321;28;20040;-68
2022/09/17 05:43:55;;;;;;;16.65;3.10;;;12.40;65.50;;;;;;5084467;28;20094;-67
2022/09/17 05:46:20;;;;;;;15.95;3.67;;;12.30;67.00;;;;;;5085345;28;20055;-67
2022/09/17 05:48:46;;;;;;;14.93;2.90;;;12.30;69.10;;;;;;5051909;28;20086;-67
2022/09/17 05:51:12;;;;;;;14.57;3.05;;;12.20;64.80;;;;;;5067359;28;20069;-68
2022/09/17 05:53:38;;;;;;;13.30;2.72;;;12.20;71.20;;;;;;5067950;28;20504;-67
2022/09/17 05:56:04;;;;;;;20.10;2.80;;;12.10;68.90;;;;;;5082253;28;20051;-68
2022/09/17 05:58:31;;;;;;;17.38;3.55;;;12.20;58.60;;;;;;5066779;28;20427;-67
2022/09/17 06:01:00;;;;;;;12.93;3.10;;;12.40;63.00;;;;;;5086249;28;20390;-68
2022/09/17 06:03:26;;;;;;;22.40;2.78;;;12.50;60.20;;;;;;5085076;28;20037;-68
2022/09/17 06:05:57;;;;;;;14.95;3.20;;;12.70;62.70;;;;;;5060703;28;20056;-68
2022/09/17 06:08:24;;;;;;;23.77;3.65;;;12.80;64.00;;;;;;5051856;28;20135;-67
2022/09/17 06:10:50;;;;;;;23.77;2.78;;;12.80;66.80;;;;;;5046434;28;20056;-68
2022/09/17 06:13:17;;;;;;;16.60;3.25;;;12.90;67.10;;;;;;5067566;28;20036;-68
2022/09/17 06:15:52;;;;;;;20.90;3.35;;;12.90;72.60;;;;;;5070692;28;20500;-68
2022/09/17 06:18:18;;;;;;;13.52;2.58;;;13.00;65.20;;;;;;5072036;28;20089;-68
2022/09/17 06:20:53;;;;;;;21.70;3.53;;;13.00;53.30;;;;;;5068307;28;20055;-68
2022/09/17 06:23:18;;;;;;;15.20;3.33;;;13.10;59.30;;;;;;5067335;28;20539;-67
2022/09/17 06:25:53;;;;;;;16.67;3.38;;;13.20;58.80;;;;;;5054079;28;20131;-68
2022/09/17 06:28:19;;;;;;;15.90;3.20;;;13.30;57.80;;;;;;5070788;28;20084;-67
2022/09/17 06:30:45;;;;;;;19.70;3.88;;;13.50;62.20;;;;;;5061989;28;20068;-67
2022/09/17 06:33:10;;;;;;;17.38;3.40;;;13.50;64.10;;;;;;5068790;28;20044;-67
2022/09/17 06:35:36;;;;;;;17.08;3.42;;;13.70;66.60;;;;;;5071648;28;20055;-68
2022/09/17 06:38:05;;;;;;;19.55;3.25;;;13.90;68.60;;;;;;5069648;28;20140;-67
2022/09/17 06:40:31;;;;;;;11.40;2.63;;;13.90;65.00;;;;;;5089477;28;20052;-68
2022/09/17 06:42:59;;;;;;;16.92;3.15;;;13.90;70.80;;;;;;5070704;28;20296;-68
2022/09/17 06:45:25;;;;;;;19.40;3.58;;;13.80;74.10;;;;;;5071466;28;20108;-67
2022/09/17 06:47:51;;;;;;;18.13;3.42;;;13.70;74.90;;;;;;5089455;28;20861;-67
2022/09/17 06:50:17;;;;;;;22.98;3.63;;;13.50;70.00;;;;;;5069999;28;20071;-67
2022/09/17 06:52:50;;;;;;;19.42;3.38;;;13.40;79.40;;;;;;5071679;28;20580;-68
2022/09/17 06:55:16;;;;;;;22.63;3.28;;;13.20;82.70;;;;;;5051741;28;20542;-68
2022/09/17 06:57:42;;;;;;;15.48;2.88;;;13.10;81.70;;;;;;5082736;28;20050;-67
2022/09/17 07:00:09;;;;;;;17.67;2.33;;;13.10;79.00;;;;;;5069007;28;20058;-68
2022/09/17 07:02:34;;;;;;;13.93;2.53;;;13.30;70.70;;;;;;5063140;28;20040;-67
2022/09/17 07:05:01;;;;;;;9.93;3.05;;;13.50;66.90;;;;;;5083115;28;20044;-68
2022/09/17 07:07:27;;;;;;;13.77;2.47;;;13.70;65.10;;;;;;5053268;28;20043;-68
2022/09/17 07:09:53;;;;;;;23.95;3.60;;;13.80;62.10;;;;;;5080543;28;20398;-68
2022/09/17 07:12:20;;;;;;;17.83;2.55;;;13.90;62.20;;;;;;5052190;28;20059;-68
2022/09/17 07:14:46;;;;;;;18.98;3.40;;;14.00;58.50;;;;;;5070527;28;20036;-68
2022/09/17 07:17:13;;;;;;;14.90;2.20;;;14.10;57.20;;;;;;5068982;28;20170;-68
2022/09/17 07:19:39;;;;;;;20.27;3.33;;;14.20;40.50;;;;;;5069355;28;20248;-67
2022/09/17 07:22:04;;;;;;;26.20;4.70;;;14.30;43.80;;;;;;5077165;28;21304;-68
2022/09/17 07:24:30;;;;;;;15.88;3.42;;;14.40;45.20;;;;;;5069213;28;20036;-69
2022/09/17 07:26:56;;;;;;;30.42;4.40;;;14.40;29.80;;;;;;5087219;28;20196;-67
2022/09/17 07:29:25;;;;;;;22.98;3.70;;;14.50;27.20;;;;;;5084950;28;20063;-68
2022/09/17 07:31:51;;;;;;;14.85;3.63;;;14.50;25.90;;;;;;5087553;28;20127;-68
2022/09/17 07:34:17;;;;;;;16.33;3.60;;;14.60;37.00;;;;;;5085892;28;20046;-68
2022/09/17 07:36:43;;;;;;;18.75;3.42;;;14.70;31.20;;;;;;5086998;28;20497;-68
2022/09/17 07:39:12;;;;;;;29.20;5.82;;;14.70;41.40;;;;;;5050973;28;20043;-68
2022/09/17 07:41:40;;;;;;;24.27;4.75;;;14.50;73.70;;;;;;5085714;28;20036;-68
2022/09/17 07:44:06;;;;;;;18.15;3.97;;;13.80;84.90;;;;;;5087227;28;20043;-68
2022/09/17 07:46:32;;;;;;;17.20;4.20;;;13.20;87.40;;;;;;5056076;28;20741;-69
2022/09/17 07:48:58;;;;;;;15.65;2.97;;;13.10;90.10;;;;;;5070122;28;20470;-68
2022/09/17 07:51:27;;;;;;;9.43;3.42;;;12.90;90.60;;;;;;5074806;28;20540;-68
2022/09/17 07:53:54;;;;;;;11.07;2.50;;;12.70;90.40;;;;;;5069250;28;20071;-68
2022/09/17 07:56:21;;;;;;;9.48;2.30;;;12.50;88.00;;;;;;5076207;28;20059;-68
2022/09/17 07:58:47;;;;;;;7.28;2.67;;;12.60;91.40;;;;;;5068819;28;20455;-68
2022/09/17 08:01:15;;;;;;;8.82;2.10;;;12.80;85.30;;;;;;5059448;28;20444;-68
2022/09/17 08:03:42;;;;;;;8.18;2.15;;;13.00;82.80;;;;;;5067439;28;20051;-67
2022/09/17 08:06:13;;;;;;;9.27;1.65;;;13.10;88.20;;;;;;5087022;28;20131;-68
2022/09/17 08:08:40;;;;;;;6.25;1.58;;;13.20;78.00;;;;;;5067353;28;20048;-68
2022/09/17 08:11:11;;;;;;;6.43;1.67;;;13.30;86.90;;;;;;5068576;28;20051;-67
2022/09/17 08:13:37;;;;;;;7.47;1.70;;;13.30;85.20;;;;;;5068007;28;20093;-67
2022/09/17 08:16:09;;;;;;;15.35;2.78;;;13.20;82.20;;;;;;5069232;28;20486;-67
2022/09/17 08:18:35;;;;;;;8.98;2.30;;;13.30;83.10;;;;;;5066589;28;20044;-67
2022/09/17 08:21:03;;;;;;;11.35;2.85;;;13.40;83.10;;;;;;5086012;28;20029;-67
2022/09/17 08:23:29;;;;;;;18.45;3.70;;;13.70;83.70;;;;;;5067665;28;20052;-67
2022/09/17 08:25:59;;;;;;;15.13;3.22;;;13.70;87.10;;;;;;5066172;28;20048;-67
2022/09/17 08:28:26;;;;;;;13.57;2.50;;;13.30;94.90;;;;;;5085893;28;20040;-67
2022/09/17 08:30:53;;;;;;;16.83;3.38;;;13.00;97.40;;;;;;5057052;28;20076;-67
2022/09/17 08:33:19;;;;;;;14.80;3.20;;;12.80;94.60;;;;;;5066652;28;20486;-68
2022/09/17 08:35:58;;;;;;;12.60;2.63;;;12.60;95.50;;;;;;5078844;28;20086;-67
2022/09/17 08:38:25;;;;;;;18.52;3.47;;;12.50;96.90;;;;;;5085341;28;20039;-67
2022/09/17 08:41:09;;;;;;;10.93;2.47;;;12.40;97.70;;;;;;5086517;28;20143;-67
2022/09/17 08:44:03;;;;;;;12.65;2.63;;;12.60;99.90;;;;;;5083200;28;20048;-67
2022/09/17 08:47:07;;;;;;;17.02;2.70;;;12.90;98.40;;;;;;5083705;28;20048;-67
2022/09/17 08:49:39;;;;;;;15.43;3.85;;;13.30;97.00;;;;;;5084476;28;20059;-68
2022/09/17 08:52:05;;;;;;;16.77;4.03;;;13.60;90.90;;;;;;5078412;28;20051;-67
2022/09/17 08:54:56;;;;;;;16.52;2.92;;;13.90;90.00;;;;;;5085352;28;20035;-67
2022/09/17 08:57:59;;;;;;;24.27;3.33;;;14.20;71.60;;;;;;5085469;28;20083;-67
2022/09/17 09:00:29;;;;;;;16.67;2.85;;;14.50;62.50;;;;;;5084325;28;20075;-67
2022/09/17 09:03:17;;;;;;;23.52;4.40;;;14.70;77.70;;;;;;5062258;28;20206;-68
2022/09/17 09:05:49;;;;;;;23.73;3.45;;;14.90;49.80;;;;;;5061033;28;20066;-67
2022/09/17 09:08:44;;;;;;;26.55;3.97;;;15.00;44.70;;;;;;5061247;28;20059;-67
2022/09/17 09:11:15;;;;;;;20.80;3.42;;;14.90;62.70;;;;;;5068384;28;20070;-68
2022/09/17 09:13:47;;;;;;;24.38;4.03;;;14.60;71.70;;;;;;5083846;28;20410;-67
2022/09/17 09:16:19;;;;;;;21.15;3.80;;;14.40;72.50;;;;;;5086771;28;20048;-68
2022/09/17 09:18:47;;;;;;;14.25;3.38;;;14.40;75.30;;;;;;5051067;28;20052;-67
2022/09/17 09:21:52;;;;;;;18.85;3.20;;;14.30;74.30;;;;;;5064021;28;20060;-68
2022/09/17 09:24:24;;;;;;;14.15;3.63;;;14.20;81.70;;;;;;5079960;28;20084;-67
2022/09/17 09:27:15;;;;;;;16.92;3.25;;;14.50;81.30;;;;;;5064027;28;20052;-67
2022/09/17 09:30:01;;;;;;;20.77;3.28;;;14.80;69.00;;;;;;5048526;28;20052;-67
2022/09/17 09:33:04;;;;;;;25.30;3.17;;;14.80;68.80;;;;;;5064801;28;20047;-68
2022/09/17 09:35:33;;;;;;;23.38;3.58;;;15.00;72.30;;;;;;5034661;28;20041;-67
2022/09/17 09:38:04;;;;;;;26.02;3.85;;;15.20;60.60;;;;;;5061442;28;20036;-68
2022/09/17 09:40:43;;;;;;;15.20;3.38;;;15.30;68.60;;;;;;5065909;28;20124;-67
2022/09/17 09:43:41;;;;;;;15.57;3.40;;;15.30;57.60;;;;;;5067807;28;20056;-68
2022/09/17 09:46:15;;;;;;;20.08;3.92;;;15.30;46.80;;;;;;5035713;28;20059;-68
2022/09/17 09:49:05;;;;;;;21.38;3.38;;;15.40;54.30;;;;;;5041789;28;20045;-67
2022/09/17 09:51:49;;;;;;;26.45;3.30;;;15.20;44.00;;;;;;5069597;28;20045;-68
2022/09/17 09:54:48;;;;;;;16.17;3.38;;;14.90;57.30;;;;;;5052258;28;20119;-68
2022/09/17 09:57:18;;;;;;;19.58;4.38;;;14.80;58.30;;;;;;5048984;28;20045;-68
2022/09/17 09:59:43;;;;;;;24.38;4.43;;;14.80;60.20;;;;;;5068987;28;20055;-67
2022/09/17 10:02:10;;;;;;;24.55;3.38;;;15.00;55.40;;;;;;5063171;28;20394;-67
2022/09/17 10:04:36;;;;;;;29.77;4.35;;;15.10;37.30;;;;;;5067544;28;20539;-67
2022/09/17 10:07:06;;;;;;;15.70;3.33;;;15.30;45.60;;;;;;5055130;28;20056;-68
2022/09/17 10:09:37;;;;;;;20.30;3.83;;;15.50;30.10;;;;;;5017713;28;20060;-67
2022/09/17 10:12:12;;;;;;;17.95;3.40;;;15.50;21.80;;;;;;5042728;28;20122;-67
2022/09/17 10:14:43;;;;;;;21.65;3.22;;;15.70;47.30;;;;;;5039178;28;20044;-67
2022/09/17 10:17:23;;;;;;;26.33;3.63;;;15.80;29.50;;;;;;5059017;28;20053;-68
2022/09/17 10:20:04;;;;;;;16.45;3.35;;;15.80;35.00;;;;;;5042058;28;20080;-67
2022/09/17 10:22:32;;;;;;;26.48;3.70;;;15.80;20.70;;;;;;5029444;28;20073;-68
2022/09/17 10:25:00;;;;;;;19.23;3.25;;;15.80;23.00;;;;;;5047913;28;20454;-67
2022/09/17 10:27:27;;;;;;;16.60;3.05;;;15.90;39.20;;;;;;5038995;28;20052;-67
2022/09/17 10:30:14;;;;;;;27.42;4.28;;;16.00;28.20;;;;;;5066964;28;20086;-68
2022/09/17 10:32:40;;;;;;;21.42;2.78;;;16.10;32.20;;;;;;5066998;28;20045;-68
2022/09/17 10:35:26;;;;;;;15.88;2.47;;;16.10;24.90;;;;;;5065883;28;20534;-68
2022/09/17 10:37:54;;;;;;;15.43;3.40;;;16.10;25.30;;;;;;5066410;28;20048;-68
2022/09/17 10:40:19;;;;;;;21.27;3.90;;;16.10;23.20;;;;;;5065440;28;20048;-69
2022/09/17 10:42:47;;;;;;;13.85;3.15;;;16.00;38.00;;;;;;5069475;28;20089;-67
2022/09/17 10:45:29;;;;;;;22.88;3.78;;;16.10;50.20;;;;;;5066382;28;20045;-67
2022/09/17 10:47:57;;;;;;;47.90;4.95;;;15.90;47.20;;;;;;5064524;28;20411;-67
2022/09/17 10:50:31;;;;;;;20.67;3.03;;;15.60;53.40;;;;;;5067731;28;20404;-68
2022/09/17 10:53:01;;;;;;;26.35;3.80;;;15.70;57.40;;;;;;5067421;28;20502;-68
2022/09/17 10:55:32;;;;;;;15.93;2.80;;;15.90;47.00;;;;;;5066848;28;20036;-67
2022/09/17 10:58:07;;;;;;;16.38;3.13;;;16.00;42.80;;;;;;5068121;28;20044;-68
2022/09/17 11:00:36;;;;;;;16.38;3.20;;;16.20;56.80;;;;;;5066192;28;20434;-68
2022/09/17 11:03:20;;;;;;;19.80;4.25;;;16.30;42.90;;;;;;5067520;28;20055;-67
2022/09/17 11:06:02;;;;;;;14.80;3.60;;;16.30;39.40;;;;;;5064056;28;20045;-68
2022/09/17 11:08:43;;;;;;;23.38;3.47;;;16.40;46.90;;;;;;5064447;28;20056;-67
2022/09/17 11:11:14;;;;;;;18.92;2.95;;;16.40;45.70;;;;;;5064327;28;20479;-68
2022/09/17 11:14:06;;;;;;;21.75;3.50;;;16.30;43.40;;;;;;5041114;28;20072;-67
2022/09/17 11:16:39;;;;;;;21.23;3.08;;;15.90;32.40;;;;;;5068036;28;20121;-67
2022/09/17 11:19:14;;;;;;;14.25;3.13;;;15.80;51.70;;;;;;5065632;28;20048;-67
2022/09/17 11:22:15;;;;;;;15.35;2.95;;;16.00;45.00;;;;;;5066665;28;20078;-67
2022/09/17 11:24:55;;;;;;;21.73;3.58;;;16.10;40.70;;;;;;5041180;28;20068;-66
2022/09/17 11:27:45;;;;;;;16.48;2.90;;;16.30;38.50;;;;;;5076400;28;20059;-67
2022/09/17 11:30:20;;;;;;;12.88;3.03;;;16.40;32.90;;;;;;5084201;28;20052;-66
2022/09/17 11:33:07;;;;;;;19.77;4.03;;;16.50;26.90;;;;;;5086593;28;20490;-67
2022/09/17 11:35:39;;;;;;;14.80;3.22;;;16.50;29.40;;;;;;5077150;28;20479;-67
2022/09/17 11:38:20;;;;;;;14.38;3.30;;;16.60;37.90;;;;;;5088069;28;20048;-67
2022/09/17 11:41:22;;;;;;;17.25;3.17;;;16.60;22.50;;;;;;5085688;28;20090;-67
2022/09/17 11:44:16;;;;;;;20.40;3.38;;;16.50;20.00;;;;;;5078538;28;20082;-67
2022/09/17 11:47:05;;;;;;;17.13;3.47;;;16.50;25.10;;;;;;5052557;28;20489;-67
2022/09/17 11:49:53;;;;;;;18.33;2.80;;;16.40;34.90;;;;;;5068638;28;20090;-67
2022/09/17 11:52:30;;;;;;;13.25;3.35;;;16.20;21.00;;;;;;5043873;28;20299;-67
2022/09/17 11:55:00;;;;;;;18.85;3.50;;;15.70;23.50;;;;;;5088268;28;20044;-67
2022/09/17 11:57:33;;;;;;;20.52;3.88;;;15.40;26.50;;;;;;5068459;28;20133;-67
2022/09/17 12:00:11;;;;;;;14.32;3.08;;;15.20;25.20;;;;;;5087931;28;20086;-67
2022/09/17 12:02:37;;;;;;;15.77;3.03;;;15.20;18.60;;;;;;5066750;28;20129;-67
2022/09/17 12:05:27;;;;;;;17.30;3.13;;;15.20;22.70;;;;;;5067856;28;20087;-68
2022/09/17 12:08:14;;;;;;;14.18;2.85;;;15.40;27.10;;;;;;5069202;28;20052;-67
2022/09/17 12:10:58;;;;;;;17.42;2.80;;;15.80;23.50;;;;;;5067490;28;20135;-67
2022/09/17 12:13:43;;;;;;;14.20;2.97;;;15.90;20.40;;;;;;5068246;28;20040;-67
2022/09/17 12:16:47;;;;;;;16.60;3.47;;;15.80;27.60;;;;;;5052515;28;20051;-66
2022/09/17 12:19:32;;;;;;;10.95;2.63;;;15.70;24.70;;;;;;5041590;28;20105;-67
2022/09/17 12:22:16;;;;;;;15.32;3.53;;;15.70;24.00;;;;;;5070289;28;20047;-67
2022/09/17 12:24:43;;;;;;;18.38;3.40;;;15.70;30.60;;;;;;5086000;28;20047;-67
2022/09/17 12:27:34;;;;;;;18.73;4.05;;;15.80;47.90;;;;;;5087386;28;20048;-67
2022/09/17 12:30:16;;;;;;;20.60;3.28;;;16.00;46.00;;;;;;5061187;28;20048;-66
2022/09/17 12:33:07;;;;;;;9.18;2.53;;;15.80;34.20;;;;;;5085956;28;20071;-67
2022/09/17 12:36:01;;;;;;;28.17;5.03;;;15.40;51.10;;;;;;5077374;28;20040;-66
2022/09/17 12:38:36;;;;;;;22.40;4.80;;;15.10;56.70;;;;;;5039032;28;20440;-66
2022/09/17 12:41:25;;;;;;;15.05;3.55;;;15.50;63.90;;;;;;5051456;28;20055;-67
2022/09/17 12:44:03;;;;;;;16.67;3.47;;;15.70;59.00;;;;;;5085788;28;20044;-67
2022/09/17 12:46:48;;;;;;;17.98;4.07;;;15.70;62.60;;;;;;5086685;28;20081;-66
2022/09/17 12:49:42;;;;;;;13.88;3.15;;;15.70;56.10;;;;;;5086301;28;20123;-67
2022/09/17 12:52:45;;;;;;;11.40;2.60;;;15.80;60.00;;;;;;5087351;28;20044;-67
2022/09/17 12:55:39;;;;;;;17.58;3.53;;;16.00;49.30;;;;;;5077936;28;20051;-67
2022/09/17 12:58:34;;;;;;;18.67;3.50;;;16.20;40.70;;;;;;5085631;28;20604;-67
2022/09/17 13:01:09;;;;;;;25.50;3.50;;;16.30;42.60;;;;;;5046727;28;20058;-67
2022/09/17 13:04:22;;;;;;;22.75;3.75;;;16.50;60.70;;;;;;5085820;28;20080;-66
2022/09/17 13:07:20;;;;;;;25.45;3.42;;;16.70;44.30;;;;;;5061837;28;20052;-66
2022/09/17 13:10:26;;;;;;;17.40;3.70;;;16.70;38.10;;;;;;5086745;28;20047;-66